sensor_id;sensor_type;location;lat;lon;timestamp;temperature;humidity
13591;DHT22;6866;50.778;7.206;2023-07-02T00:00:51;18.00;99.90
13591;DHT22;6866;50.778;7.206;2023-07-02T00:03:17;18.10;99.90
13591;DHT22;6866;50.778;7.206;2023-07-02T00:05:47;18.10;99.90
13591;DHT22;6866;50.778;7.206;2023-07-02T00:08:15;18.10;99.90
13591;DHT22;6866;50.778;7.206;2023-07-02T00:10:41;18.10;99.90
13591;DHT22;6866;50.778;7.206;2023-07-02T00:13:07;18.10;99.90
13591;DHT22;6866;50.778;7.206;2023-07-02T00:15:32;18.00;99.90
13591;DHT22;6866;50.778;7.206;2023-07-02T00:17:58;18.10;99.90
13591;DHT22;6866;50.778;7.206;2023-07-02T00:20:23;18.10;99.90
13591;DHT22;6866;50.778;7.206;2023-07-02T00:22:50;18.10;99.90
13591;DHT22;6866;50.778;7.206;2023-07-02T00:25:15;18.00;99.90
13591;DHT22;6866;50.778;7.206;2023-07-02T00:27:41;18.10;99.90
13591;DHT22;6866;50.778;7.206;2023-07-02T00:30:07;18.00;99.90
13591;DHT22;6866;50.778;7.206;2023-07-02T00:32:33;18.00;99.90
13591;DHT22;6866;50.778;7.206;2023-07-02T00:34:59;17.90;99.90
13591;DHT22;6866;50.778;7.206;2023-07-02T00:37:24;18.00;99.90
13591;DHT22;6866;50.778;7.206;2023-07-02T00:39:50;17.60;99.90
13591;DHT22;6866;50.778;7.206;2023-07-02T00:42:15;17.70;99.90
13591;DHT22;6866;50.778;7.206;2023-07-02T00:44:42;17.70;99.90
13591;DHT22;6866;50.778;7.206;2023-07-02T00:47:11;17.70;99.90
13591;DHT22;6866;50.778;7.206;2023-07-02T00:49:38;17.70;99.90
13591;DHT22;6866;50.778;7.206;2023-07-02T00:52:05;17.70;99.90
13591;DHT22;6866;50.778;7.206;2023-07-02T00:54:31;17.70;99.90
13591;DHT22;6866;50.778;7.206;2023-07-02T00:56:57;17.70;99.90
13591;DHT22;6866;50.778;7.206;2023-07-02T00:59:29;17.70;99.90
13591;DHT22;6866;50.778;7.206;2023-07-02T01:04:31;17.60;99.90
13591;DHT22;6866;50.778;7.206;2023-07-02T01:06:56;17.60;99.90
13591;DHT22;6866;50.778;7.206;2023-07-02T01:09:23;17.60;99.90
13591;DHT22;6866;50.778;7.206;2023-07-02T01:11:57;17.60;99.90
13591;DHT22;6866;50.778;7.206;2023-07-02T01:14:56;17.50;99.90
13591;DHT22;6866;50.778;7.206;2023-07-02T01:17:20;17.50;99.90
13591;DHT22;6866;50.778;7.206;2023-07-02T01:19:55;17.50;99.90
13591;DHT22;6866;50.778;7.206;2023-07-02T01:22:26;17.50;99.90
13591;DHT22;6866;50.778;7.206;2023-07-02T01:24:53;17.40;99.90
13591;DHT22;6866;50.778;7.206;2023-07-02T01:27:19;17.30;99.90
13591;DHT22;6866;50.778;7.206;2023-07-02T01:29:45;17.20;99.90
13591;DHT22;6866;50.778;7.206;2023-07-02T01:32:13;17.20;99.90
13591;DHT22;6866;50.778;7.206;2023-07-02T01:34:38;17.20;99.90
13591;DHT22;6866;50.778;7.206;2023-07-02T01:37:05;17.10;99.90
13591;DHT22;6866;50.778;7.206;2023-07-02T01:39:30;17.20;99.90
13591;DHT22;6866;50.778;7.206;2023-07-02T01:42:09;17.20;99.90
13591;DHT22;6866;50.778;7.206;2023-07-02T01:44:35;17.10;99.90
13591;DHT22;6866;50.778;7.206;2023-07-02T01:47:01;17.00;99.90
13591;DHT22;6866;50.778;7.206;2023-07-02T01:49:27;17.00;99.90
13591;DHT22;6866;50.778;7.206;2023-07-02T01:51:53;16.90;99.90
13591;DHT22;6866;50.778;7.206;2023-07-02T01:54:20;16.90;99.90
13591;DHT22;6866;50.778;7.206;2023-07-02T01:56:46;16.90;99.90
13591;DHT22;6866;50.778;7.206;2023-07-02T01:59:12;16.90;99.90
13591;DHT22;6866;50.778;7.206;2023-07-02T02:01:38;16.80;99.90
13591;DHT22;6866;50.778;7.206;2023-07-02T02:04:07;16.90;99.90
13591;DHT22;6866;50.778;7.206;2023-07-02T02:06:33;16.90;99.90
13591;DHT22;6866;50.778;7.206;2023-07-02T02:08:59;16.80;99.90
13591;DHT22;6866;50.778;7.206;2023-07-02T02:11:25;17.00;99.90
13591;DHT22;6866;50.778;7.206;2023-07-02T02:13:51;16.90;99.90
13591;DHT22;6866;50.778;7.206;2023-07-02T02:16:16;16.90;99.90
13591;DHT22;6866;50.778;7.206;2023-07-02T02:18:42;17.00;99.90
13591;DHT22;6866;50.778;7.206;2023-07-02T02:21:08;17.00;99.90
13591;DHT22;6866;50.778;7.206;2023-07-02T02:23:33;17.00;99.90
13591;DHT22;6866;50.778;7.206;2023-07-02T02:25:59;17.00;99.90
13591;DHT22;6866;50.778;7.206;2023-07-02T02:28:24;17.00;99.90
13591;DHT22;6866;50.778;7.206;2023-07-02T02:30:50;16.90;99.90
13591;DHT22;6866;50.778;7.206;2023-07-02T02:33:16;16.80;99.90
13591;DHT22;6866;50.778;7.206;2023-07-02T02:35:41;16.90;99.90
13591;DHT22;6866;50.778;7.206;2023-07-02T02:38:07;16.90;99.90
13591;DHT22;6866;50.778;7.206;2023-07-02T02:40:32;16.90;99.90
13591;DHT22;6866;50.778;7.206;2023-07-02T02:42:58;17.00;99.90
13591;DHT22;6866;50.778;7.206;2023-07-02T02:45:23;16.90;99.90
13591;DHT22;6866;50.778;7.206;2023-07-02T02:47:49;16.90;99.90
13591;DHT22;6866;50.778;7.206;2023-07-02T02:50:15;16.90;99.90
13591;DHT22;6866;50.778;7.206;2023-07-02T02:52:40;16.90;99.90
13591;DHT22;6866;50.778;7.206;2023-07-02T02:55:07;17.00;99.90
13591;DHT22;6866;50.778;7.206;2023-07-02T02:57:33;16.90;99.90
13591;DHT22;6866;50.778;7.206;2023-07-02T02:59:59;17.00;99.90
13591;DHT22;6866;50.778;7.206;2023-07-02T03:02:25;16.90;99.90
13591;DHT22;6866;50.778;7.206;2023-07-02T03:04:51;16.90;99.90
13591;DHT22;6866;50.778;7.206;2023-07-02T03:07:16;16.90;99.90
13591;DHT22;6866;50.778;7.206;2023-07-02T03:09:42;16.80;99.90
13591;DHT22;6866;50.778;7.206;2023-07-02T03:12:08;16.80;99.90
13591;DHT22;6866;50.778;7.206;2023-07-02T03:14:34;16.80;99.90
13591;DHT22;6866;50.778;7.206;2023-07-02T03:16:59;16.90;99.90
13591;DHT22;6866;50.778;7.206;2023-07-02T03:19:25;16.90;99.90
13591;DHT22;6866;50.778;7.206;2023-07-02T03:21:51;17.00;99.90
13591;DHT22;6866;50.778;7.206;2023-07-02T03:24:17;17.00;99.90
13591;DHT22;6866;50.778;7.206;2023-07-02T03:26:43;17.00;99.90
13591;DHT22;6866;50.778;7.206;2023-07-02T03:29:09;17.00;99.90
13591;DHT22;6866;50.778;7.206;2023-07-02T03:31:35;16.90;99.90
13591;DHT22;6866;50.778;7.206;2023-07-02T03:34:07;17.00;99.90
13591;DHT22;6866;50.778;7.206;2023-07-02T03:36:32;16.90;99.90
13591;DHT22;6866;50.778;7.206;2023-07-02T03:38:58;17.00;99.90
13591;DHT22;6866;50.778;7.206;2023-07-02T03:41:24;17.00;99.90
13591;DHT22;6866;50.778;7.206;2023-07-02T03:43:50;17.00;99.90
13591;DHT22;6866;50.778;7.206;2023-07-02T03:46:15;16.90;99.90
13591;DHT22;6866;50.778;7.206;2023-07-02T03:48:41;16.90;99.90
13591;DHT22;6866;50.778;7.206;2023-07-02T03:51:07;16.90;99.90
13591;DHT22;6866;50.778;7.206;2023-07-02T03:53:32;16.80;99.90
13591;DHT22;6866;50.778;7.206;2023-07-02T03:55:58;16.80;99.90
13591;DHT22;6866;50.778;7.206;2023-07-02T03:58:24;16.80;99.90
13591;DHT22;6866;50.778;7.206;2023-07-02T04:00:49;16.80;99.90
13591;DHT22;6866;50.778;7.206;2023-07-02T04:03:16;16.90;99.90
13591;DHT22;6866;50.778;7.206;2023-07-02T04:05:42;16.90;99.90
13591;DHT22;6866;50.778;7.206;2023-07-02T04:08:07;17.00;99.90
13591;DHT22;6866;50.778;7.206;2023-07-02T04:10:33;17.00;99.90
13591;DHT22;6866;50.778;7.206;2023-07-02T04:12:58;17.10;99.90
13591;DHT22;6866;50.778;7.206;2023-07-02T04:15:24;17.20;99.90
13591;DHT22;6866;50.778;7.206;2023-07-02T04:17:51;17.20;99.90
13591;DHT22;6866;50.778;7.206;2023-07-02T04:20:17;17.20;99.90
13591;DHT22;6866;50.778;7.206;2023-07-02T04:22:47;17.10;99.90
13591;DHT22;6866;50.778;7.206;2023-07-02T04:25:13;17.20;99.90
13591;DHT22;6866;50.778;7.206;2023-07-02T04:27:44;17.20;99.90
13591;DHT22;6866;50.778;7.206;2023-07-02T04:30:10;17.30;99.90
13591;DHT22;6866;50.778;7.206;2023-07-02T04:32:37;17.30;99.90
13591;DHT22;6866;50.778;7.206;2023-07-02T04:35:08;17.30;99.90
13591;DHT22;6866;50.778;7.206;2023-07-02T04:37:34;17.30;99.90
13591;DHT22;6866;50.778;7.206;2023-07-02T04:40:00;17.20;99.90
13591;DHT22;6866;50.778;7.206;2023-07-02T04:42:28;17.20;99.90
13591;DHT22;6866;50.778;7.206;2023-07-02T04:44:57;17.20;99.90
13591;DHT22;6866;50.778;7.206;2023-07-02T04:47:28;17.20;99.90
13591;DHT22;6866;50.778;7.206;2023-07-02T04:49:53;17.20;99.90
13591;DHT22;6866;50.778;7.206;2023-07-02T04:52:19;17.30;99.90
13591;DHT22;6866;50.778;7.206;2023-07-02T04:54:44;17.20;99.90
13591;DHT22;6866;50.778;7.206;2023-07-02T04:57:10;17.30;99.90
13591;DHT22;6866;50.778;7.206;2023-07-02T04:59:36;17.30;99.90
13591;DHT22;6866;50.778;7.206;2023-07-02T05:02:01;17.30;99.90
13591;DHT22;6866;50.778;7.206;2023-07-02T05:04:27;17.20;99.90
13591;DHT22;6866;50.778;7.206;2023-07-02T05:06:53;17.10;99.90
13591;DHT22;6866;50.778;7.206;2023-07-02T05:09:18;17.20;99.90
13591;DHT22;6866;50.778;7.206;2023-07-02T05:11:44;17.20;99.90
13591;DHT22;6866;50.778;7.206;2023-07-02T05:14:09;17.20;99.90
13591;DHT22;6866;50.778;7.206;2023-07-02T05:16:35;17.20;99.90
13591;DHT22;6866;50.778;7.206;2023-07-02T05:19:00;17.30;99.90
13591;DHT22;6866;50.778;7.206;2023-07-02T05:21:26;17.30;99.90
13591;DHT22;6866;50.778;7.206;2023-07-02T05:23:51;17.40;99.90
13591;DHT22;6866;50.778;7.206;2023-07-02T05:26:17;17.40;99.90
13591;DHT22;6866;50.778;7.206;2023-07-02T05:28:43;17.40;99.90
13591;DHT22;6866;50.778;7.206;2023-07-02T05:31:09;17.40;99.90
13591;DHT22;6866;50.778;7.206;2023-07-02T05:33:35;17.50;99.90
13591;DHT22;6866;50.778;7.206;2023-07-02T05:36:01;17.40;99.90
13591;DHT22;6866;50.778;7.206;2023-07-02T05:38:26;17.50;99.90
13591;DHT22;6866;50.778;7.206;2023-07-02T05:40:52;17.50;99.90
13591;DHT22;6866;50.778;7.206;2023-07-02T05:43:18;17.50;99.90
13591;DHT22;6866;50.778;7.206;2023-07-02T05:45:43;17.60;99.90
13591;DHT22;6866;50.778;7.206;2023-07-02T05:48:09;17.60;99.90
13591;DHT22;6866;50.778;7.206;2023-07-02T05:50:34;17.70;99.90
13591;DHT22;6866;50.778;7.206;2023-07-02T05:53:00;17.80;99.90
13591;DHT22;6866;50.778;7.206;2023-07-02T05:55:25;17.80;99.90
13591;DHT22;6866;50.778;7.206;2023-07-02T05:57:51;17.90;99.90
13591;DHT22;6866;50.778;7.206;2023-07-02T06:00:17;18.10;99.90
13591;DHT22;6866;50.778;7.206;2023-07-02T06:02:42;18.00;99.90
13591;DHT22;6866;50.778;7.206;2023-07-02T06:05:08;18.10;99.90
13591;DHT22;6866;50.778;7.206;2023-07-02T06:07:33;18.10;99.90
13591;DHT22;6866;50.778;7.206;2023-07-02T06:09:59;18.20;99.90
13591;DHT22;6866;50.778;7.206;2023-07-02T06:12:25;18.10;99.90
13591;DHT22;6866;50.778;7.206;2023-07-02T06:14:50;18.20;99.90
13591;DHT22;6866;50.778;7.206;2023-07-02T06:17:16;18.20;99.90
13591;DHT22;6866;50.778;7.206;2023-07-02T06:19:41;18.10;99.90
13591;DHT22;6866;50.778;7.206;2023-07-02T06:22:07;18.30;99.90
13591;DHT22;6866;50.778;7.206;2023-07-02T06:24:32;18.30;99.90
13591;DHT22;6866;50.778;7.206;2023-07-02T06:26:58;18.30;99.90
13591;DHT22;6866;50.778;7.206;2023-07-02T06:29:24;18.40;99.90
13591;DHT22;6866;50.778;7.206;2023-07-02T06:31:50;18.50;99.90
13591;DHT22;6866;50.778;7.206;2023-07-02T06:34:16;18.60;99.90
13591;DHT22;6866;50.778;7.206;2023-07-02T06:36:42;18.80;99.90
13591;DHT22;6866;50.778;7.206;2023-07-02T06:39:08;18.90;99.90
13591;DHT22;6866;50.778;7.206;2023-07-02T06:41:35;18.90;99.90
13591;DHT22;6866;50.778;7.206;2023-07-02T06:44:00;18.80;99.80
13591;DHT22;6866;50.778;7.206;2023-07-02T06:46:26;18.90;99.70
13591;DHT22;6866;50.778;7.206;2023-07-02T06:48:52;19.00;99.00
13591;DHT22;6866;50.778;7.206;2023-07-02T06:51:17;19.20;99.30
13591;DHT22;6866;50.778;7.206;2023-07-02T06:53:44;19.50;98.90
13591;DHT22;6866;50.778;7.206;2023-07-02T06:56:10;19.30;98.40
13591;DHT22;6866;50.778;7.206;2023-07-02T06:58:36;19.60;98.10
13591;DHT22;6866;50.778;7.206;2023-07-02T07:01:01;19.60;96.60
13591;DHT22;6866;50.778;7.206;2023-07-02T07:03:27;19.70;96.30
13591;DHT22;6866;50.778;7.206;2023-07-02T07:05:53;19.70;95.30
13591;DHT22;6866;50.778;7.206;2023-07-02T07:08:19;19.60;95.10
13591;DHT22;6866;50.778;7.206;2023-07-02T07:10:45;19.60;94.30
13591;DHT22;6866;50.778;7.206;2023-07-02T07:13:14;19.70;94.30
13591;DHT22;6866;50.778;7.206;2023-07-02T07:15:39;19.90;94.00
13591;DHT22;6866;50.778;7.206;2023-07-02T07:18:05;19.90;94.10
13591;DHT22;6866;50.778;7.206;2023-07-02T07:20:31;20.30;93.00
13591;DHT22;6866;50.778;7.206;2023-07-02T07:22:57;20.90;90.80
13591;DHT22;6866;50.778;7.206;2023-07-02T07:25:22;21.10;89.50
13591;DHT22;6866;50.778;7.206;2023-07-02T07:27:48;21.40;86.10
13591;DHT22;6866;50.778;7.206;2023-07-02T07:30:14;21.30;84.80
13591;DHT22;6866;50.778;7.206;2023-07-02T07:32:40;21.00;82.20
13591;DHT22;6866;50.778;7.206;2023-07-02T07:35:07;21.10;82.10
13591;DHT22;6866;50.778;7.206;2023-07-02T07:37:32;21.30;81.00
13591;DHT22;6866;50.778;7.206;2023-07-02T07:39:58;21.60;80.00
13591;DHT22;6866;50.778;7.206;2023-07-02T07:42:23;21.60;78.90
13591;DHT22;6866;50.778;7.206;2023-07-02T07:44:49;21.40;78.30
13591;DHT22;6866;50.778;7.206;2023-07-02T07:47:14;21.50;77.30
13591;DHT22;6866;50.778;7.206;2023-07-02T07:49:40;21.20;78.30
13591;DHT22;6866;50.778;7.206;2023-07-02T07:52:06;21.10;78.50
13591;DHT22;6866;50.778;7.206;2023-07-02T07:54:32;21.20;80.70
13591;DHT22;6866;50.778;7.206;2023-07-02T07:57:00;21.40;77.30
13591;DHT22;6866;50.778;7.206;2023-07-02T07:59:26;21.50;76.10
13591;DHT22;6866;50.778;7.206;2023-07-02T08:01:51;22.10;73.20
13591;DHT22;6866;50.778;7.206;2023-07-02T08:04:17;22.80;71.60
13591;DHT22;6866;50.778;7.206;2023-07-02T08:06:43;22.70;68.90
13591;DHT22;6866;50.778;7.206;2023-07-02T08:09:08;22.20;69.80
13591;DHT22;6866;50.778;7.206;2023-07-02T08:11:35;23.10;67.40
13591;DHT22;6866;50.778;7.206;2023-07-02T08:14:00;23.10;64.80
13591;DHT22;6866;50.778;7.206;2023-07-02T08:16:26;23.30;64.40
13591;DHT22;6866;50.778;7.206;2023-07-02T08:18:51;24.50;63.10
13591;DHT22;6866;50.778;7.206;2023-07-02T08:21:17;25.40;58.70
13591;DHT22;6866;50.778;7.206;2023-07-02T08:23:42;25.40;54.90
13591;DHT22;6866;50.778;7.206;2023-07-02T08:26:09;25.40;54.40
13591;DHT22;6866;50.778;7.206;2023-07-02T08:28:36;25.80;53.90
13591;DHT22;6866;50.778;7.206;2023-07-02T08:31:03;25.80;52.10
13591;DHT22;6866;50.778;7.206;2023-07-02T08:33:29;25.30;53.40
13591;DHT22;6866;50.778;7.206;2023-07-02T08:35:55;24.40;56.00
13591;DHT22;6866;50.778;7.206;2023-07-02T08:38:21;23.90;55.10
13591;DHT22;6866;50.778;7.206;2023-07-02T08:40:46;23.20;57.10
13591;DHT22;6866;50.778;7.206;2023-07-02T08:43:13;22.80;56.40
13591;DHT22;6866;50.778;7.206;2023-07-02T08:45:40;23.50;55.90
13591;DHT22;6866;50.778;7.206;2023-07-02T08:48:07;23.80;54.20
13591;DHT22;6866;50.778;7.206;2023-07-02T08:50:33;23.60;55.30
13591;DHT22;6866;50.778;7.206;2023-07-02T08:52:58;23.20;56.30
13591;DHT22;6866;50.778;7.206;2023-07-02T08:55:24;23.30;57.50
13591;DHT22;6866;50.778;7.206;2023-07-02T08:57:53;23.90;54.90
13591;DHT22;6866;50.778;7.206;2023-07-02T09:00:19;23.30;54.60
13591;DHT22;6866;50.778;7.206;2023-07-02T09:02:46;22.80;55.30
13591;DHT22;6866;50.778;7.206;2023-07-02T09:05:12;22.70;56.00
13591;DHT22;6866;50.778;7.206;2023-07-02T09:07:45;22.50;57.40
13591;DHT22;6866;50.778;7.206;2023-07-02T09:10:11;22.40;59.10
13591;DHT22;6866;50.778;7.206;2023-07-02T09:12:37;22.40;57.90
13591;DHT22;6866;50.778;7.206;2023-07-02T09:15:07;22.40;57.70
13591;DHT22;6866;50.778;7.206;2023-07-02T09:17:33;22.70;57.60
13591;DHT22;6866;50.778;7.206;2023-07-02T09:20:01;22.90;57.40
13591;DHT22;6866;50.778;7.206;2023-07-02T09:22:30;22.80;57.50
13591;DHT22;6866;50.778;7.206;2023-07-02T09:25:00;22.70;56.90
13591;DHT22;6866;50.778;7.206;2023-07-02T09:27:40;22.70;57.30
13591;DHT22;6866;50.778;7.206;2023-07-02T09:30:08;22.60;56.30
13591;DHT22;6866;50.778;7.206;2023-07-02T09:32:34;22.60;56.20
13591;DHT22;6866;50.778;7.206;2023-07-02T09:34:59;22.60;57.60
13591;DHT22;6866;50.778;7.206;2023-07-02T09:37:26;22.60;57.00
13591;DHT22;6866;50.778;7.206;2023-07-02T09:39:53;22.40;56.50
13591;DHT22;6866;50.778;7.206;2023-07-02T09:42:21;22.30;57.70
13591;DHT22;6866;50.778;7.206;2023-07-02T09:44:47;21.90;58.30
13591;DHT22;6866;50.778;7.206;2023-07-02T09:47:17;21.90;60.50
13591;DHT22;6866;50.778;7.206;2023-07-02T09:49:49;21.80;58.80
13591;DHT22;6866;50.778;7.206;2023-07-02T09:52:17;21.70;59.10
13591;DHT22;6866;50.778;7.206;2023-07-02T09:54:44;22.20;60.20
13591;DHT22;6866;50.778;7.206;2023-07-02T09:57:10;23.00;57.00
13591;DHT22;6866;50.778;7.206;2023-07-02T09:59:37;23.10;56.80
13591;DHT22;6866;50.778;7.206;2023-07-02T10:02:03;23.30;57.40
13591;DHT22;6866;50.778;7.206;2023-07-02T10:04:42;23.10;56.10
13591;DHT22;6866;50.778;7.206;2023-07-02T10:07:09;23.20;57.00
13591;DHT22;6866;50.778;7.206;2023-07-02T10:09:45;23.30;56.60
13591;DHT22;6866;50.778;7.206;2023-07-02T10:14:45;23.90;57.40
13591;DHT22;6866;50.778;7.206;2023-07-02T10:17:23;24.10;56.90
13591;DHT22;6866;50.778;7.206;2023-07-02T10:19:53;24.50;55.90
13591;DHT22;6866;50.778;7.206;2023-07-02T10:22:19;24.60;54.90
13591;DHT22;6866;50.778;7.206;2023-07-02T10:25:11;24.50;52.80
13591;DHT22;6866;50.778;7.206;2023-07-02T10:27:39;24.30;54.60
13591;DHT22;6866;50.778;7.206;2023-07-02T10:30:06;23.80;53.60
13591;DHT22;6866;50.778;7.206;2023-07-02T10:32:36;23.70;54.10
13591;DHT22;6866;50.778;7.206;2023-07-02T10:37:38;23.50;55.40
13591;DHT22;6866;50.778;7.206;2023-07-02T10:40:06;23.80;54.60
13591;DHT22;6866;50.778;7.206;2023-07-02T10:42:32;24.40;52.30
13591;DHT22;6866;50.778;7.206;2023-07-02T10:44:59;24.10;51.70
13591;DHT22;6866;50.778;7.206;2023-07-02T10:47:25;23.90;50.60
13591;DHT22;6866;50.778;7.206;2023-07-02T10:49:50;23.50;52.60
13591;DHT22;6866;50.778;7.206;2023-07-02T10:52:16;23.20;52.20
13591;DHT22;6866;50.778;7.206;2023-07-02T10:54:44;23.00;52.60
13591;DHT22;6866;50.778;7.206;2023-07-02T10:57:13;23.20;53.00
13591;DHT22;6866;50.778;7.206;2023-07-02T10:59:38;23.20;52.40
13591;DHT22;6866;50.778;7.206;2023-07-02T11:02:05;23.00;52.90
13591;DHT22;6866;50.778;7.206;2023-07-02T11:04:32;22.90;52.90
13591;DHT22;6866;50.778;7.206;2023-07-02T11:07:01;22.70;52.90
13591;DHT22;6866;50.778;7.206;2023-07-02T11:09:27;22.70;53.30
13591;DHT22;6866;50.778;7.206;2023-07-02T11:11:57;22.70;52.70
13591;DHT22;6866;50.778;7.206;2023-07-02T11:14:36;22.90;52.60
13591;DHT22;6866;50.778;7.206;2023-07-02T11:17:06;23.10;52.80
13591;DHT22;6866;50.778;7.206;2023-07-02T11:19:33;23.20;53.40
13591;DHT22;6866;50.778;7.206;2023-07-02T11:21:59;23.50;51.80
13591;DHT22;6866;50.778;7.206;2023-07-02T11:24:34;24.10;50.00
13591;DHT22;6866;50.778;7.206;2023-07-02T11:27:01;24.10;47.50
13591;DHT22;6866;50.778;7.206;2023-07-02T11:29:29;23.70;48.80
13591;DHT22;6866;50.778;7.206;2023-07-02T11:31:55;24.10;48.50
13591;DHT22;6866;50.778;7.206;2023-07-02T11:34:29;24.40;49.30
13591;DHT22;6866;50.778;7.206;2023-07-02T11:36:55;24.50;48.50
13591;DHT22;6866;50.778;7.206;2023-07-02T11:39:20;24.10;49.60
13591;DHT22;6866;50.778;7.206;2023-07-02T11:41:47;23.80;49.50
13591;DHT22;6866;50.778;7.206;2023-07-02T11:44:13;23.70;49.70
13591;DHT22;6866;50.778;7.206;2023-07-02T11:46:39;23.50;49.60
13591;DHT22;6866;50.778;7.206;2023-07-02T11:49:05;23.10;50.70
13591;DHT22;6866;50.778;7.206;2023-07-02T11:51:33;22.90;51.00
13591;DHT22;6866;50.778;7.206;2023-07-02T11:53:58;22.70;51.90
13591;DHT22;6866;50.778;7.206;2023-07-02T11:56:24;22.70;53.00
13591;DHT22;6866;50.778;7.206;2023-07-02T11:58:49;22.60;53.40
13591;DHT22;6866;50.778;7.206;2023-07-02T12:01:15;22.60;54.20
13591;DHT22;6866;50.778;7.206;2023-07-02T12:03:40;22.70;54.20
13591;DHT22;6866;50.778;7.206;2023-07-02T12:06:06;22.80;54.30
13591;DHT22;6866;50.778;7.206;2023-07-02T12:08:31;23.40;53.70
13591;DHT22;6866;50.778;7.206;2023-07-02T12:10:58;24.10;50.10
13591;DHT22;6866;50.778;7.206;2023-07-02T12:13:23;24.20;48.10
13591;DHT22;6866;50.778;7.206;2023-07-02T12:15:49;24.20;49.60
13591;DHT22;6866;50.778;7.206;2023-07-02T12:18:16;24.20;49.80
13591;DHT22;6866;50.778;7.206;2023-07-02T12:20:42;24.10;49.30
13591;DHT22;6866;50.778;7.206;2023-07-02T12:23:07;24.10;49.60
13591;DHT22;6866;50.778;7.206;2023-07-02T12:25:33;23.80;50.50
13591;DHT22;6866;50.778;7.206;2023-07-02T12:27:59;23.60;49.80
13591;DHT22;6866;50.778;7.206;2023-07-02T12:30:24;23.90;50.20
13591;DHT22;6866;50.778;7.206;2023-07-02T12:32:50;24.10;49.00
13591;DHT22;6866;50.778;7.206;2023-07-02T12:35:15;24.00;48.50
13591;DHT22;6866;50.778;7.206;2023-07-02T12:37:49;23.80;48.20
13591;DHT22;6866;50.778;7.206;2023-07-02T12:40:15;24.10;47.90
13591;DHT22;6866;50.778;7.206;2023-07-02T12:42:42;24.00;48.10
13591;DHT22;6866;50.778;7.206;2023-07-02T12:45:09;23.90;48.00
13591;DHT22;6866;50.778;7.206;2023-07-02T12:47:34;23.90;49.00
13591;DHT22;6866;50.778;7.206;2023-07-02T12:50:00;24.20;48.50
13591;DHT22;6866;50.778;7.206;2023-07-02T12:52:26;24.00;48.00
13591;DHT22;6866;50.778;7.206;2023-07-02T12:54:51;23.90;47.60
13591;DHT22;6866;50.778;7.206;2023-07-02T12:57:17;24.00;48.50
13591;DHT22;6866;50.778;7.206;2023-07-02T12:59:43;24.10;48.00
13591;DHT22;6866;50.778;7.206;2023-07-02T13:02:10;24.10;47.10
13591;DHT22;6866;50.778;7.206;2023-07-02T13:04:36;23.90;47.60
13591;DHT22;6866;50.778;7.206;2023-07-02T13:07:02;23.90;47.80
13591;DHT22;6866;50.778;7.206;2023-07-02T13:09:27;23.80;48.10
13591;DHT22;6866;50.778;7.206;2023-07-02T13:11:53;23.80;47.40
13591;DHT22;6866;50.778;7.206;2023-07-02T13:14:18;23.80;46.40
13591;DHT22;6866;50.778;7.206;2023-07-02T13:16:44;24.00;45.90
13591;DHT22;6866;50.778;7.206;2023-07-02T13:19:09;24.10;46.20
13591;DHT22;6866;50.778;7.206;2023-07-02T13:21:36;23.90;46.50
13591;DHT22;6866;50.778;7.206;2023-07-02T13:24:02;24.10;46.10
13591;DHT22;6866;50.778;7.206;2023-07-02T13:26:28;24.40;46.70
13591;DHT22;6866;50.778;7.206;2023-07-02T13:28:53;24.50;45.30
13591;DHT22;6866;50.778;7.206;2023-07-02T13:31:19;24.90;45.10
13591;DHT22;6866;50.778;7.206;2023-07-02T13:33:44;24.80;46.20
13591;DHT22;6866;50.778;7.206;2023-07-02T13:36:11;24.60;46.10
13591;DHT22;6866;50.778;7.206;2023-07-02T13:38:37;24.40;47.40
13591;DHT22;6866;50.778;7.206;2023-07-02T13:41:03;24.50;47.10
13591;DHT22;6866;50.778;7.206;2023-07-02T13:43:28;24.40;46.40
13591;DHT22;6866;50.778;7.206;2023-07-02T13:45:54;24.50;47.10
13591;DHT22;6866;50.778;7.206;2023-07-02T13:48:19;24.60;46.80
13591;DHT22;6866;50.778;7.206;2023-07-02T13:50:45;24.40;46.80
13591;DHT22;6866;50.778;7.206;2023-07-02T13:53:10;24.40;46.50
13591;DHT22;6866;50.778;7.206;2023-07-02T13:55:36;24.50;47.10
13591;DHT22;6866;50.778;7.206;2023-07-02T13:58:01;25.00;46.30
13591;DHT22;6866;50.778;7.206;2023-07-02T14:00:27;25.20;45.60
13591;DHT22;6866;50.778;7.206;2023-07-02T14:02:53;24.70;45.00
13591;DHT22;6866;50.778;7.206;2023-07-02T14:05:19;24.40;45.90
13591;DHT22;6866;50.778;7.206;2023-07-02T14:07:45;24.40;46.30
13591;DHT22;6866;50.778;7.206;2023-07-02T14:10:11;24.10;46.30
13591;DHT22;6866;50.778;7.206;2023-07-02T14:12:41;24.10;46.30
13591;DHT22;6866;50.778;7.206;2023-07-02T14:15:08;23.80;46.40
13591;DHT22;6866;50.778;7.206;2023-07-02T14:17:33;24.00;47.60
13591;DHT22;6866;50.778;7.206;2023-07-02T14:19:59;24.00;47.10
13591;DHT22;6866;50.778;7.206;2023-07-02T14:22:25;24.30;47.40
13591;DHT22;6866;50.778;7.206;2023-07-02T14:24:50;24.80;46.20
13591;DHT22;6866;50.778;7.206;2023-07-02T14:27:16;24.90;45.70
13591;DHT22;6866;50.778;7.206;2023-07-02T14:29:42;25.00;45.30
13591;DHT22;6866;50.778;7.206;2023-07-02T14:32:08;24.70;45.70
13591;DHT22;6866;50.778;7.206;2023-07-02T14:34:34;24.50;45.90
13591;DHT22;6866;50.778;7.206;2023-07-02T14:36:59;24.40;45.90
13591;DHT22;6866;50.778;7.206;2023-07-02T14:39:25;24.80;45.80
13591;DHT22;6866;50.778;7.206;2023-07-02T14:41:50;24.90;44.70
13591;DHT22;6866;50.778;7.206;2023-07-02T14:44:16;25.10;44.80
13591;DHT22;6866;50.778;7.206;2023-07-02T14:46:42;24.70;45.10
13591;DHT22;6866;50.778;7.206;2023-07-02T14:49:08;24.80;44.20
13591;DHT22;6866;50.778;7.206;2023-07-02T14:51:34;25.00;44.70
13591;DHT22;6866;50.778;7.206;2023-07-02T14:54:00;25.10;44.10
13591;DHT22;6866;50.778;7.206;2023-07-02T14:56:29;25.00;43.60
13591;DHT22;6866;50.778;7.206;2023-07-02T14:58:54;25.10;43.00
13591;DHT22;6866;50.778;7.206;2023-07-02T15:01:20;24.80;44.10
13591;DHT22;6866;50.778;7.206;2023-07-02T15:03:45;24.60;43.90
13591;DHT22;6866;50.778;7.206;2023-07-02T15:06:13;24.90;44.20
13591;DHT22;6866;50.778;7.206;2023-07-02T15:08:40;25.00;42.40
13591;DHT22;6866;50.778;7.206;2023-07-02T15:11:06;24.70;42.50
13591;DHT22;6866;50.778;7.206;2023-07-02T15:13:32;24.80;43.00
13591;DHT22;6866;50.778;7.206;2023-07-02T15:15:58;25.00;43.30
13591;DHT22;6866;50.778;7.206;2023-07-02T15:18:24;24.60;43.80
13591;DHT22;6866;50.778;7.206;2023-07-02T15:20:50;24.60;43.90
13591;DHT22;6866;50.778;7.206;2023-07-02T15:23:19;24.50;43.60
13591;DHT22;6866;50.778;7.206;2023-07-02T15:26:03;24.70;44.10
13591;DHT22;6866;50.778;7.206;2023-07-02T15:28:29;24.50;43.60
13591;DHT22;6866;50.778;7.206;2023-07-02T15:31:02;24.20;43.00
13591;DHT22;6866;50.778;7.206;2023-07-02T15:33:27;24.20;44.40
13591;DHT22;6866;50.778;7.206;2023-07-02T15:35:53;24.00;44.90
13591;DHT22;6866;50.778;7.206;2023-07-02T15:38:19;24.10;43.60
13591;DHT22;6866;50.778;7.206;2023-07-02T15:40:47;24.10;44.00
13591;DHT22;6866;50.778;7.206;2023-07-02T15:43:13;24.10;43.60
13591;DHT22;6866;50.778;7.206;2023-07-02T15:45:38;24.40;44.10
13591;DHT22;6866;50.778;7.206;2023-07-02T15:48:04;24.40;44.60